Time;durP1;ratioP1;P1;durP2;ratioP2;P2;SDS_P1;SDS_P2;PMS_P1;PMS_P2;Temp;Humidity;BMP_temperature;BMP_pressure;BME280_temperature;BME280_humidity;BME280_pressure;Samples;Min_cycle;Max_cycle;Signal;HPM_P1;HPM_P2
2022/07/05 10:12:19;;;;;;;9.48;2.35;;;;;;;27.19;54.45;98313.09;5066709;27;21206;-60
2022/07/05 10:14:48;;;;;;;5.25;1.88;;;;;;;27.23;55.49;98314.22;5065763;28;20676;-60
2022/07/05 10:17:13;;;;;;;6.85;1.70;;;;;;;27.21;54.89;98302.19;5066947;28;20021;-60
2022/07/05 10:19:41;;;;;;;4.35;1.67;;;;;;;26.97;54.21;98281.25;5096186;27;20021;-62
2022/07/05 10:22:06;;;;;;;5.55;1.90;;;;;;;27.03;54.37;98314.09;5105031;27;20104;-61
2022/07/05 10:24:34;;;;;;;5.85;1.60;;;;;;;26.88;53.65;98276.69;5066750;28;20013;-60
2022/07/05 10:27:00;;;;;;;5.20;2.10;;;;;;;27.18;52.88;98300.03;5065183;28;20024;-60
2022/07/05 10:29:26;;;;;;;6.00;1.80;;;;;;;27.18;55.15;98302.69;5083240;28;20077;-60
2022/07/05 10:31:51;;;;;;;6.68;2.40;;;;;;;27.29;53.57;98303.56;5066106;28;20420;-61
2022/07/05 10:34:17;;;;;;;4.35;1.40;;;;;;;27.21;54.15;98304.84;5064985;28;20031;-60
2022/07/05 10:36:42;;;;;;;5.38;1.63;;;;;;;27.41;51.10;98306.81;5064203;28;20099;-61
2022/07/05 10:39:08;;;;;;;4.72;1.40;;;;;;;27.44;52.13;98302.84;5067911;28;20108;-60
2022/07/05 10:41:34;;;;;;;3.80;1.20;;;;;;;27.15;50.36;98274.66;5106717;27;20038;-60
2022/07/05 10:44:00;;;;;;;3.45;1.10;;;;;;;27.56;49.79;98303.38;5083272;28;20127;-60
2022/07/05 10:46:36;;;;;;;4.32;1.40;;;;;;;27.43;51.79;98302.03;5067235;28;20028;-61
2022/07/05 10:49:14;;;;;;;3.10;1.10;;;;;;;27.26;50.68;98301.41;5065092;28;20532;-60
2022/07/05 10:51:40;;;;;;;3.60;1.33;;;;;;;27.34;47.88;98288.38;5065635;28;20013;-61
2022/07/05 10:54:05;;;;;;;4.95;1.10;;;;;;;27.63;44.62;98293.25;5061170;28;20102;-62
2022/07/05 10:56:30;;;;;;;3.00;1.08;;;;;;;27.96;46.50;98294.66;5060578;28;20214;-61
2022/07/05 10:59:11;;;;;;;4.80;1.20;;;;;;;27.66;51.05;98252.69;5064610;28;20078;-61
2022/07/05 11:01:40;;;;;;;3.50;1.20;;;;;;;27.92;49.63;98295.47;5061081;28;20039;-60
2022/07/05 11:04:11;;;;;;;3.30;1.17;;;;;;;28.04;47.62;98300.56;5098322;27;20452;-61
2022/07/05 11:06:39;;;;;;;3.03;1.20;;;;;;;28.17;44.25;98287.47;5060809;28;20415;-62
2022/07/05 11:09:08;;;;;;;2.30;0.73;;;;;;;28.42;43.30;98288.56;5068518;28;20024;-60
2022/07/05 11:11:44;;;;;;;3.47;1.08;;;;;;;28.33;41.52;98266.91;5070385;28;20166;-61
2022/07/05 11:14:19;;;;;;;2.67;0.90;;;;;;;28.58;41.09;98293.88;5084437;28;20020;-62
2022/07/05 11:16:44;;;;;;;4.03;1.20;;;;;;;28.51;42.74;98288.78;5069588;28;20436;-62
2022/07/05 11:19:16;;;;;;;3.60;0.98;;;;;;;28.72;41.26;98279.69;5057066;28;20048;-61
2022/07/05 11:22:01;;;;;;;3.15;1.08;;;;;;;28.71;41.78;98283.44;5062334;28;20036;-61
2022/07/05 11:24:28;;;;;;;2.85;1.00;;;;;;;28.69;41.45;98274.06;5066388;28;20091;-62
2022/07/05 11:26:57;;;;;;;2.22;0.70;;;;;;;28.79;40.55;98273.22;5056902;28;20020;-60
2022/07/05 11:29:49;;;;;;;2.63;1.02;;;;;;;28.77;40.46;98276.22;5045472;28;20435;-60
2022/07/05 11:32:21;;;;;;;2.85;0.80;;;;;;;28.85;40.97;98274.84;5046814;28;20047;-61
2022/07/05 11:34:52;;;;;;;2.78;0.80;;;;;;;28.96;39.63;98276.41;5050530;28;20078;-60
2022/07/05 11:37:26;;;;;;;2.85;0.85;;;;;;;28.93;39.94;98271.59;5068100;28;20032;-61
2022/07/05 11:40:04;;;;;;;2.88;0.90;;;;;;;29.07;39.83;98272.59;5054420;28;20096;-61
2022/07/05 11:42:29;;;;;;;2.95;1.15;;;;;;;29.06;39.30;98235.41;5059990;28;20052;-61
2022/07/05 11:44:55;;;;;;;4.35;0.80;;;;;;;29.31;38.94;98263.97;5050764;28;20659;-61
2022/07/05 11:47:20;;;;;;;4.22;0.90;;;;;;;29.31;39.78;98259.41;5045291;28;20090;-61
2022/07/05 11:49:58;;;;;;;2.20;0.70;;;;;;;29.29;38.35;98261.56;5054260;28;20093;-62
2022/07/05 11:52:32;;;;;;;3.63;0.70;;;;;;;29.38;38.26;98259.13;5067747;28;20025;-61
2022/07/05 11:54:59;;;;;;;3.25;0.90;;;;;;;29.47;38.04;98244.06;5052206;28;20012;-60
2022/07/05 11:57:25;;;;;;;3.67;0.70;;;;;;;29.76;36.85;98250.63;5081615;28;20033;-59
2022/07/05 11:59:50;;;;;;;3.15;0.70;;;;;;;29.63;34.85;98214.50;5051327;28;20021;-60
2022/07/05 12:02:16;;;;;;;3.88;0.90;;;;;;;29.51;36.57;98220.22;5063120;28;20025;-61
2022/07/05 12:04:47;;;;;;;1.90;0.50;;;;;;;29.49;36.20;98212.44;5054951;28;20033;-59
2022/07/05 12:07:26;;;;;;;1.92;0.65;;;;;;;29.69;37.50;98235.59;5050616;28;20029;-59
2022/07/05 12:12:45;;;;;;;0.82;0.40;;;;;;;29.91;33.66;98237.09;5046019;28;20051;-61
2022/07/05 12:15:15;;;;;;;1.88;0.60;;;;;;;29.90;36.44;98212.19;5050798;28;20150;-59
2022/07/05 12:17:42;;;;;;;1.13;0.43;;;;;;;30.04;34.79;98236.44;5047682;28;20013;-63
2022/07/05 12:20:09;;;;;;;1.65;0.50;;;;;;;29.87;35.08;98206.59;5050600;28;20032;-60
2022/07/05 12:22:36;;;;;;;1.40;0.50;;;;;;;30.11;35.02;98244.16;5058926;28;20055;-60
2022/07/05 12:25:03;;;;;;;1.38;0.68;;;;;;;30.06;33.93;98239.66;5056356;28;20027;-59
2022/07/05 12:27:31;;;;;;;2.50;0.60;;;;;;;30.09;32.76;98236.41;5039483;28;20032;-60
2022/07/05 12:29:58;;;;;;;2.30;0.50;;;;;;;30.13;33.06;98228.59;5054956;28;20105;-60
2022/07/05 12:32:23;;;;;;;1.42;0.50;;;;;;;30.21;32.16;98232.53;5052901;28;20025;-61
2022/07/05 12:34:49;;;;;;;1.52;0.50;;;;;;;30.29;33.38;98235.41;5053610;28;20036;-62
2022/07/05 12:37:22;;;;;;;2.13;0.57;;;;;;;30.21;33.29;98233.34;5069232;28;20036;-60
2022/07/05 12:39:48;;;;;;;1.65;0.60;;;;;;;30.23;34.73;98225.03;5049186;28;20070;-60
2022/07/05 12:42:33;;;;;;;1.63;0.55;;;;;;;30.27;33.30;98218.00;5075448;28;20498;-61
2022/07/05 12:45:15;;;;;;;1.65;0.50;;;;;;;30.22;33.16;98220.75;5051163;28;20023;-62
2022/07/05 12:47:49;;;;;;;0.75;0.40;;;;;;;30.04;33.29;98184.72;5072457;28;20471;-62
2022/07/05 12:50:14;;;;;;;0.68;0.35;;;;;;;30.15;32.57;98213.03;5048585;28;20522;-60
2022/07/05 12:53:00;;;;;;;1.23;0.40;;;;;;;30.12;32.36;98196.69;5041020;28;20030;-61
2022/07/05 12:58:20;;;;;;;1.27;0.45;;;;;;;30.07;32.96;98176.91;5049217;28;20119;-60
2022/07/05 13:00:45;;;;;;;1.27;0.50;;;;;;;30.20;31.48;98190.75;5050664;28;20111;-61
2022/07/05 13:03:11;;;;;;;1.92;0.60;;;;;;;30.41;34.15;98210.13;5042500;28;20046;-59
2022/07/05 13:05:36;;;;;;;1.65;0.60;;;;;;;30.41;31.75;98205.56;5057632;28;20031;-60
2022/07/05 13:08:02;;;;;;;1.45;0.50;;;;;;;30.43;31.99;98205.25;5053789;28;20016;-60
2022/07/05 13:10:31;;;;;;;2.72;0.70;;;;;;;30.42;31.18;98185.69;5049076;28;20032;-61
2022/07/05 13:12:57;;;;;;;3.13;0.70;;;;;;;30.56;31.62;98198.44;5031521;28;20024;-60
2022/07/05 13:15:23;;;;;;;1.48;0.50;;;;;;;30.62;29.39;98195.41;5084167;28;20393;-60
2022/07/05 13:17:48;;;;;;;2.75;0.50;;;;;;;30.69;30.13;98200.44;5053873;28;20079;-60
2022/07/05 13:20:17;;;;;;;2.70;0.57;;;;;;;30.76;31.31;98206.25;5053948;28;20073;-61
2022/07/05 13:22:42;;;;;;;1.80;0.65;;;;;;;30.82;31.26;98205.09;5070101;28;20096;-58
2022/07/05 13:25:08;;;;;;;2.30;0.68;;;;;;;30.93;29.62;98203.09;5085015;28;20070;-59
2022/07/05 13:27:34;;;;;;;2.92;0.50;;;;;;;30.96;30.64;98199.03;5041400;28;20108;-60
2022/07/05 13:30:00;;;;;;;2.03;0.60;;;;;;;30.94;30.15;98190.47;5049996;28;20031;-59
2022/07/05 13:32:25;;;;;;;1.38;0.50;;;;;;;30.92;28.06;98165.81;5047768;28;20025;-62
2022/07/05 13:34:52;;;;;;;1.27;0.50;;;;;;;31.14;28.00;98198.28;5044438;28;20353;-61
2022/07/05 13:37:17;;;;;;;3.28;0.68;;;;;;;31.17;27.41;98200.38;5045112;28;20134;-60
2022/07/05 13:39:42;;;;;;;1.60;0.57;;;;;;;31.15;28.91;98205.22;5046788;28;20082;-60
2022/07/05 13:42:08;;;;;;;1.60;0.57;;;;;;;31.15;29.46;98191.00;5053886;28;20391;-60
2022/07/05 13:44:33;;;;;;;1.70;0.60;;;;;;;31.04;28.37;98166.97;5072186;28;20028;-59
2022/07/05 13:46:59;;;;;;;2.33;0.60;;;;;;;31.19;30.47;98198.19;5045153;28;20024;-61
2022/07/05 13:49:24;;;;;;;1.75;0.65;;;;;;;31.15;30.85;98201.75;5039759;28;20132;-59
2022/07/05 13:51:50;;;;;;;1.58;0.60;;;;;;;31.20;28.01;98186.38;5050610;28;20052;-60
2022/07/05 13:54:15;;;;;;;2.85;0.77;;;;;;;31.36;25.54;98194.19;5041252;28;20079;-60
2022/07/05 13:56:41;;;;;;;1.50;0.60;;;;;;;31.33;25.46;98189.44;5045395;28;20054;-61
2022/07/05 13:59:06;;;;;;;1.80;0.55;;;;;;;31.23;26.52;98179.59;5046509;28;20032;-60
2022/07/05 14:01:32;;;;;;;1.98;0.70;;;;;;;31.18;26.95;98180.50;5078898;28;20044;-60
2022/07/05 14:03:58;;;;;;;1.15;0.55;;;;;;;31.12;28.29;98165.53;5046423;28;20021;-60
2022/07/05 14:06:28;;;;;;;2.20;0.80;;;;;;;31.34;27.26;98188.31;5063644;28;20075;-60
2022/07/05 14:08:54;;;;;;;2.95;0.68;;;;;;;31.36;26.77;98181.59;5028653;28;20614;-60
2022/07/05 14:11:19;;;;;;;1.70;0.55;;;;;;;31.34;25.71;98186.44;5088004;28;20020;-59
2022/07/05 14:13:44;;;;;;;1.55;0.60;;;;;;;31.30;27.07;98150.50;5049268;28;20067;-61
2022/07/05 14:16:10;;;;;;;1.90;0.63;;;;;;;31.47;26.92;98174.16;5046237;28;20442;-60
2022/07/05 14:18:36;;;;;;;2.00;0.60;;;;;;;31.48;25.51;98175.00;5041938;28;20164;-59
2022/07/05 14:21:02;;;;;;;2.83;1.65;;;;;;;31.57;26.98;98176.72;5049102;28;20024;-62
2022/07/05 14:23:27;;;;;;;2.20;0.80;;;;;;;31.57;28.33;98176.72;5029970;28;20051;-58
2022/07/05 14:25:53;;;;;;;1.90;0.50;;;;;;;31.63;27.42;98173.94;5048564;28;20585;-61
2022/07/05 14:28:19;;;;;;;3.00;0.88;;;;;;;31.58;26.11;98166.75;5041039;28;20296;-60
2022/07/05 14:30:45;;;;;;;1.85;0.57;;;;;;;31.65;25.53;98166.38;5045572;28;20013;-58
2022/07/05 14:33:14;;;;;;;1.67;0.60;;;;;;;31.69;27.32;98165.50;5059097;28;20039;-60
2022/07/05 14:35:40;;;;;;;;;;;;;;;31.67;26.81;98166.88;5063226;28;20276;-59
2022/07/05 14:38:06;;;;;;;2.53;0.70;;;;;;;31.67;25.54;98161.50;5046123;28;20434;-61
2022/07/05 14:40:31;;;;;;;2.55;0.80;;;;;;;31.49;25.38;98130.91;5026777;28;20036;-61
2022/07/05 14:42:59;;;;;;;1.70;0.60;;;;;;;31.51;24.58;98137.59;5046434;28;20058;-59
2022/07/05 14:45:25;;;;;;;2.38;0.90;;;;;;;31.73;25.55;98154.97;5065203;28;20017;-60
2022/07/05 14:47:51;;;;;;;2.75;0.70;;;;;;;31.77;26.08;98154.06;5044488;28;20020;-60
2022/07/05 14:50:16;;;;;;;1.55;0.73;;;;;;;31.87;26.05;98150.44;5065302;28;20174;-59
2022/07/05 14:52:42;;;;;;;1.75;0.65;;;;;;;31.79;24.40;98151.88;5044183;28;21192;-60
2022/07/05 14:55:09;;;;;;;3.00;0.80;;;;;;;31.63;26.91;98130.97;5050220;28;20021;-60
2022/07/05 14:57:35;;;;;;;2.30;0.75;;;;;;;31.53;25.82;98127.34;5044434;28;20021;-59
2022/07/05 15:00:00;;;;;;;3.10;0.70;;;;;;;31.69;25.89;98141.34;5050156;28;20099;-61
2022/07/05 15:02:26;;;;;;;2.83;0.80;;;;;;;31.73;24.43;98146.91;5066539;28;20044;-62
2022/07/05 15:04:51;;;;;;;3.50;0.80;;;;;;;31.82;25.20;98150.53;5051450;28;20072;-60
2022/07/05 15:07:16;;;;;;;2.45;0.73;;;;;;;31.91;23.95;98148.75;5046098;28;20096;-60
2022/07/05 15:09:42;;;;;;;1.90;0.70;;;;;;;31.92;23.64;98150.31;5056652;28;20099;-62
2022/07/05 15:12:08;;;;;;;2.67;0.85;;;;;;;31.74;24.58;98117.03;5048799;28;20016;-59
2022/07/05 15:14:33;;;;;;;2.30;0.80;;;;;;;31.86;27.00;98142.66;5045947;28;20017;-60
2022/07/05 15:16:58;;;;;;;2.90;0.77;;;;;;;31.63;25.82;98112.94;5045603;28;20055;-62
2022/07/05 15:19:24;;;;;;;3.10;0.75;;;;;;;31.81;26.14;98147.00;5051271;28;20537;-60
2022/07/05 15:21:50;;;;;;;1.75;0.63;;;;;;;31.76;25.69;98146.31;5034785;28;20016;-61
2022/07/05 15:24:16;;;;;;;2.65;0.70;;;;;;;31.56;25.37;98118.72;5050520;28;20060;-59
2022/07/05 15:26:42;;;;;;;2.83;1.00;;;;;;;31.73;25.43;98146.91;5037290;28;20049;-61
2022/07/05 15:29:09;;;;;;;2.53;0.70;;;;;;;31.79;25.06;98143.03;5081961;28;20051;-59
2022/07/05 15:31:35;;;;;;;3.35;0.80;;;;;;;31.90;26.43;98143.66;5047287;28;20080;-60
2022/07/05 15:34:05;;;;;;;3.78;0.88;;;;;;;31.88;25.06;98138.56;5052282;28;20085;-62
2022/07/05 15:36:33;;;;;;;3.25;0.93;;;;;;;31.92;26.95;98144.16;5079102;28;20606;-60
2022/07/05 15:39:03;;;;;;;2.00;0.68;;;;;;;31.73;24.73;98120.03;5052128;28;20032;-62
2022/07/05 15:41:30;;;;;;;3.45;0.80;;;;;;;31.86;24.07;98143.47;5050074;28;20060;-62
2022/07/05 15:43:55;;;;;;;2.28;0.80;;;;;;;31.93;24.47;98143.88;5032543;28;20017;-61
2022/07/05 15:46:20;;;;;;;2.22;0.80;;;;;;;31.70;26.02;98121.41;5028449;28;20013;-62
2022/07/05 15:48:48;;;;;;;1.52;0.68;;;;;;;31.83;25.83;98143.25;5047295;28;20706;-62
2022/07/05 15:51:14;;;;;;;2.97;1.05;;;;;;;31.81;25.48;98143.53;5041052;28;20024;-61
2022/07/05 15:53:39;;;;;;;2.90;0.93;;;;;;;31.78;24.55;98133.38;5043475;28;20028;-62
2022/07/05 15:56:05;;;;;;;2.47;0.60;;;;;;;31.82;24.64;98129.03;5081995;28;20024;-61
2022/07/05 15:58:32;;;;;;;2.80;0.73;;;;;;;31.61;24.32;98107.06;5039501;28;20419;-61
2022/07/05 16:00:59;;;;;;;2.60;0.80;;;;;;;31.84;24.14;98134.88;5076292;28;20683;-60
2022/07/05 16:03:28;;;;;;;2.17;0.80;;;;;;;31.86;26.38;98127.31;5046106;28;20096;-62
2022/07/05 16:05:56;;;;;;;;;;;;;;;31.76;24.64;98127.50;5051997;28;20047;-62
2022/07/05 16:08:24;;;;;;;3.10;1.10;;;;;;;31.49;25.37;98104.84;5045152;28;20227;-61
2022/07/05 16:10:50;;;;;;;3.03;1.05;;;;;;;31.68;24.95;98134.34;5047203;28;20029;-61
2022/07/05 16:13:15;;;;;;;2.33;0.80;;;;;;;31.38;26.70;98108.78;5045724;28;20090;-61
2022/07/05 16:18:26;;;;;;;2.50;0.80;;;;;;;31.49;26.30;98120.16;5045367;28;20147;-62
2022/07/05 16:20:51;;;;;;;1.65;0.65;;;;;;;31.57;25.67;98125.66;5031505;28;20039;-61
2022/07/05 16:23:17;;;;;;;2.63;0.90;;;;;;;31.51;26.74;98120.69;5033939;28;20096;-63
2022/07/05 16:25:42;;;;;;;2.90;0.70;;;;;;;31.45;26.99;98119.13;5044647;28;20025;-60
2022/07/05 16:28:09;;;;;;;3.20;0.90;;;;;;;31.35;27.74;98115.50;5046886;28;20028;-60
2022/07/05 16:30:34;;;;;;;2.40;0.80;;;;;;;31.24;27.28;98114.88;5078161;28;20020;-61
2022/07/05 16:33:00;;;;;;;2.35;0.80;;;;;;;31.29;28.00;98116.69;5066506;28;20071;-60
2022/07/05 16:35:25;;;;;;;2.17;0.80;;;;;;;31.33;26.84;98112.34;5040708;28;20855;-61
2022/07/05 16:37:51;;;;;;;4.05;1.20;;;;;;;31.31;28.95;98113.72;5060488;28;20098;-61
2022/07/05 16:40:17;;;;;;;2.50;0.75;;;;;;;31.29;29.17;98115.88;5058543;28;20043;-61
2022/07/05 16:42:42;;;;;;;2.85;0.80;;;;;;;31.23;28.64;98109.78;5052286;28;20068;-60
2022/07/05 16:45:08;;;;;;;2.53;0.88;;;;;;;31.22;27.01;98110.91;5044068;28;20029;-60
2022/07/05 16:47:34;;;;;;;2.72;0.88;;;;;;;31.18;28.60;98110.69;5024565;28;20021;-61
2022/07/05 16:50:00;;;;;;;2.63;0.75;;;;;;;31.00;28.73;98084.66;5034968;28;20687;-60
2022/07/05 16:52:25;;;;;;;3.85;0.80;;;;;;;31.13;28.72;98118.03;5048142;28;20028;-60
2022/07/05 16:54:51;;;;;;;3.65;1.00;;;;;;;31.12;27.52;98111.84;5035457;28;20025;-61
2022/07/05 16:57:16;;;;;;;2.75;0.80;;;;;;;31.02;27.98;98112.00;5049368;28;20078;-62
2022/07/05 16:59:41;;;;;;;3.58;1.10;;;;;;;31.01;28.66;98102.34;5063698;28;20025;-61
2022/07/05 17:02:09;;;;;;;4.60;0.93;;;;;;;31.02;28.21;98118.16;5044358;28;20035;-60
2022/07/05 17:04:35;;;;;;;3.08;0.75;;;;;;;30.80;28.63;98121.41;5071247;28;20132;-61
2022/07/05 17:07:00;;;;;;;2.58;0.80;;;;;;;30.56;29.07;98117.97;5046039;28;20091;-61
2022/07/05 17:09:25;;;;;;;2.97;0.80;;;;;;;30.31;28.62;98121.72;5050593;28;20163;-61
2022/07/05 17:11:51;;;;;;;2.58;0.70;;;;;;;30.17;29.53;98122.38;5043377;28;20036;-62
2022/07/05 17:14:16;;;;;;;2.42;0.80;;;;;;;30.09;28.88;98109.63;5041332;28;20040;-62
2022/07/05 17:16:42;;;;;;;3.53;1.20;;;;;;;30.16;30.20;98120.00;5049477;28;20037;-62
2022/07/05 17:19:07;;;;;;;5.10;1.88;;;;;;;30.22;28.20;98122.34;5032326;28;20590;-61
2022/07/05 17:21:34;;;;;;;3.40;1.05;;;;;;;30.09;28.68;98094.34;5042684;28;20021;-60
2022/07/05 17:23:59;;;;;;;2.97;0.90;;;;;;;30.21;28.85;98119.94;5036731;28;20463;-61
2022/07/05 17:26:29;;;;;;;2.95;1.08;;;;;;;30.24;29.44;98124.75;5050127;28;20028;-61
2022/07/05 17:28:55;;;;;;;4.03;1.02;;;;;;;30.02;30.14;98136.75;5055580;28;20542;-62
2022/07/05 17:31:21;;;;;;;3.22;0.90;;;;;;;29.73;29.76;98101.91;5043204;28;20217;-63
2022/07/05 17:33:47;;;;;;;3.10;0.80;;;;;;;29.69;30.37;98133.03;5084691;28;20077;-63
2022/07/05 17:36:14;;;;;;;3.50;0.85;;;;;;;29.67;33.95;98132.50;5049876;28;20021;-63
2022/07/05 17:38:42;;;;;;;3.30;1.13;;;;;;;29.66;31.91;98145.13;5040529;28;20100;-63
2022/07/05 17:41:12;;;;;;;5.07;1.42;;;;;;;29.80;29.28;98147.16;5036346;28;20467;-63
2022/07/05 17:43:48;;;;;;;3.92;1.10;;;;;;;29.75;29.41;98133.81;5034000;28;20451;-63
2022/07/05 17:46:15;;;;;;;4.30;1.70;;;;;;;29.73;31.10;98142.09;5074300;28;20143;-63
2022/07/05 17:48:41;;;;;;;5.05;1.48;;;;;;;29.68;29.63;98150.97;5041183;28;20100;-63
2022/07/05 17:51:07;;;;;;;5.65;1.23;;;;;;;29.67;30.92;98144.00;5066296;28;20402;-63
2022/07/05 17:53:32;;;;;;;4.80;1.45;;;;;;;29.43;31.52;98117.16;5037330;28;20036;-63
2022/07/05 17:55:58;;;;;;;3.92;1.20;;;;;;;29.55;32.12;98150.81;5046724;28;20020;-63
2022/07/05 17:58:27;;;;;;;4.07;1.33;;;;;;;29.49;32.37;98150.06;5041582;28;20025;-63
2022/07/05 18:00:53;;;;;;;;;;;;;;;29.36;33.75;98153.38;5053903;28;20051;-63
2022/07/05 18:03:19;;;;;;;3.15;0.90;;;;;;;29.16;32.24;98146.28;5076399;28;20223;-63
2022/07/05 18:05:45;;;;;;;3.70;1.20;;;;;;;29.26;33.23;98167.63;5040794;28;20024;-62
2022/07/05 18:08:11;;;;;;;4.30;1.30;;;;;;;29.14;33.77;98163.41;5081604;28;20023;-64
2022/07/05 18:10:36;;;;;;;4.25;1.20;;;;;;;28.93;35.05;98137.81;5045732;28;20460;-63
2022/07/05 18:13:02;;;;;;;3.30;1.00;;;;;;;28.97;35.48;98176.34;5054467;28;20455;-63
2022/07/05 18:15:27;;;;;;;2.20;0.85;;;;;;;28.80;35.00;98182.00;5043366;28;20033;-64
2022/07/05 18:17:52;;;;;;;3.42;1.00;;;;;;;28.67;35.88;98161.22;5044161;28;20047;-63
2022/07/05 18:20:18;;;;;;;3.20;0.90;;;;;;;28.64;35.45;98185.81;5050451;28;20024;-63
2022/07/05 18:22:43;;;;;;;3.50;0.90;;;;;;;28.58;36.17;98185.03;5050788;28;20063;-64
2022/07/05 18:25:09;;;;;;;3.00;0.88;;;;;;;28.60;35.03;98182.09;5050408;28;20025;-63
2022/07/05 18:27:34;;;;;;;4.82;1.02;;;;;;;28.43;36.87;98190.41;5074829;28;20527;-63
2022/07/05 18:30:00;;;;;;;4.82;1.20;;;;;;;28.31;35.59;98150.59;5046717;28;20078;-63
2022/07/05 18:32:25;;;;;;;3.47;1.25;;;;;;;28.45;35.56;98180.25;5040299;28;20551;-63
2022/07/05 18:34:50;;;;;;;2.92;1.20;;;;;;;28.34;35.57;98184.81;5048778;28;20024;-63
2022/07/05 18:37:16;;;;;;;2.92;1.00;;;;;;;28.17;36.51;98180.56;5050635;28;20047;-63
2022/07/05 18:39:41;;;;;;;4.05;0.90;;;;;;;28.14;36.42;98186.44;5052038;28;20017;-62
2022/07/05 18:42:06;;;;;;;4.32;1.00;;;;;;;27.89;35.94;98163.22;5057316;28;20838;-63
2022/07/05 18:44:32;;;;;;;3.33;1.17;;;;;;;28.03;36.42;98202.78;5045771;28;20044;-64
2022/07/05 18:46:57;;;;;;;2.85;0.93;;;;;;;28.08;36.39;98205.44;5043665;28;20027;-63
2022/07/05 18:49:23;;;;;;;2.88;1.00;;;;;;;28.03;35.16;98206.25;5050274;28;20509;-63
2022/07/05 18:51:48;;;;;;;2.95;0.90;;;;;;;28.02;36.52;98210.00;5089101;28;20391;-63
2022/07/05 18:54:14;;;;;;;3.30;1.17;;;;;;;28.06;35.35;98216.41;5047913;28;20021;-63
2022/07/05 18:56:39;;;;;;;3.70;1.08;;;;;;;27.93;36.61;98208.94;5048208;28;20021;-64
2022/07/05 18:59:04;;;;;;;2.80;0.98;;;;;;;27.96;35.27;98213.72;5069323;28;20426;-63
2022/07/05 19:01:30;;;;;;;3.35;1.00;;;;;;;27.90;36.12;98220.16;5045665;28;20103;-61
2022/07/05 19:03:55;;;;;;;3.80;0.88;;;;;;;27.94;34.88;98224.69;5051561;28;20467;-63
2022/07/05 19:14:35;;;;;;;7.35;4.70;;;;;;;27.22;42.36;98242.41;5052598;28;20632;-64
2022/07/05 19:17:00;;;;;;;7.80;2.47;;;;;;;27.09;43.34;98249.03;5046756;28;20025;-63
2022/07/05 19:19:25;;;;;;;7.07;3.10;;;;;;;27.11;42.52;98240.78;5050065;28;20122;-62
2022/07/05 19:21:51;;;;;;;5.32;1.35;;;;;;;27.01;39.33;98231.66;5058667;28;20033;-63
2022/07/05 19:24:16;;;;;;;4.32;1.00;;;;;;;27.13;41.62;98252.00;5078335;28;20032;-63
2022/07/05 19:26:42;;;;;;;2.85;1.00;;;;;;;26.97;41.41;98243.91;5050296;28;20020;-63
2022/07/05 19:29:07;;;;;;;2.50;0.95;;;;;;;27.08;40.87;98263.44;5042652;28;20039;-63
2022/07/05 19:31:33;;;;;;;3.10;1.00;;;;;;;27.12;43.23;98261.84;5047014;28;20036;-63
2022/07/05 19:33:58;;;;;;;2.90;0.80;;;;;;;27.04;42.39;98265.03;5046258;28;20922;-63
2022/07/05 19:36:24;;;;;;;2.72;1.02;;;;;;;26.92;40.98;98262.56;5083413;28;20021;-63
2022/07/05 19:38:49;;;;;;;3.67;1.35;;;;;;;26.81;41.19;98258.25;5048176;28;20016;-63
2022/07/05 19:41:18;;;;;;;5.20;2.20;;;;;;;26.81;42.98;98276.91;5053450;28;20044;-63
2022/07/05 19:43:43;;;;;;;4.20;1.88;;;;;;;26.80;39.11;98276.13;5046142;28;20509;-63
2022/07/05 19:46:09;;;;;;;4.95;2.03;;;;;;;26.87;39.06;98280.41;5079061;28;20038;-63
2022/07/05 19:48:34;;;;;;;3.75;1.00;;;;;;;26.97;38.41;98269.78;5051684;28;20352;-63
2022/07/05 19:50:59;;;;;;;3.13;1.33;;;;;;;27.01;38.55;98285.00;5044850;28;20021;-63
2022/07/05 19:53:25;;;;;;;4.22;1.20;;;;;;;27.07;35.91;98275.19;5079344;28;20336;-62
2022/07/05 19:55:50;;;;;;;3.05;0.93;;;;;;;26.85;39.36;98254.00;5049164;28;20356;-63
2022/07/05 19:58:16;;;;;;;4.15;1.05;;;;;;;26.85;41.50;98281.47;5076733;28;20341;-63
2022/07/05 20:00:42;;;;;;;3.50;0.93;;;;;;;26.62;45.62;98280.00;5045974;28;20036;-63
2022/07/05 20:03:08;;;;;;;2.53;1.00;;;;;;;26.55;44.81;98290.06;5051079;28;20368;-63
2022/07/05 20:05:35;;;;;;;5.10;1.02;;;;;;;26.40;43.63;98261.44;5076907;28;20028;-63
2022/07/05 20:08:02;;;;;;;3.00;1.00;;;;;;;26.44;43.90;98288.38;5050539;28;20270;-63
2022/07/05 20:10:27;;;;;;;2.45;0.98;;;;;;;26.51;42.70;98299.63;5078000;28;20029;-62
2022/07/05 20:12:53;;;;;;;2.78;0.80;;;;;;;26.60;39.06;98302.63;5043974;28;20031;-62
2022/07/05 20:15:18;;;;;;;3.00;1.00;;;;;;;26.75;36.75;98308.09;5045785;28;20051;-62
2022/07/05 20:17:43;;;;;;;2.95;1.00;;;;;;;26.91;34.26;98306.31;5046961;28;20028;-64
2022/07/05 20:20:10;;;;;;;4.55;1.13;;;;;;;27.07;33.51;98315.22;5045903;28;20025;-63
2022/07/05 20:22:35;;;;;;;4.38;0.90;;;;;;;27.03;33.81;98292.75;5052403;28;20158;-63
2022/07/05 20:25:00;;;;;;;2.67;1.00;;;;;;;27.08;34.04;98306.13;5050188;28;20500;-63
2022/07/05 20:27:26;;;;;;;3.80;1.20;;;;;;;27.03;34.95;98327.44;5061363;28;20033;-63
2022/07/05 20:29:51;;;;;;;3.10;0.93;;;;;;;26.93;36.36;98319.41;5042399;28;20416;-63
2022/07/05 20:32:17;;;;;;;2.90;0.98;;;;;;;26.71;36.52;98300.88;5047940;28;20029;-64
2022/07/05 20:34:43;;;;;;;4.25;1.00;;;;;;;26.93;34.34;98324.72;5060898;28;20032;-63
2022/07/05 20:37:10;;;;;;;3.67;1.00;;;;;;;27.03;32.63;98330.09;5050335;28;20033;-63
2022/07/05 20:39:36;;;;;;;2.40;0.93;;;;;;;27.14;32.13;98326.41;5075852;28;20022;-63
2022/07/05 20:42:01;;;;;;;3.15;1.00;;;;;;;27.17;32.60;98341.13;5056741;28;20021;-63
2022/07/05 20:44:28;;;;;;;4.13;0.90;;;;;;;27.19;33.36;98329.13;5077123;28;20718;-62
2022/07/05 20:46:53;;;;;;;3.50;0.90;;;;;;;27.07;32.90;98293.03;5042998;28;20031;-62
2022/07/05 20:49:20;;;;;;;3.83;1.00;;;;;;;27.27;32.66;98303.84;5045995;28;20033;-62
2022/07/05 20:51:45;;;;;;;5.78;0.95;;;;;;;27.32;32.99;98335.88;5053788;28;20051;-62
2022/07/05 20:54:13;;;;;;;2.38;0.80;;;;;;;27.23;33.57;98330.22;5047548;28;20049;-62
2022/07/05 20:56:39;;;;;;;3.33;1.02;;;;;;;27.20;34.06;98341.41;5066858;28;20141;-62
2022/07/05 20:59:04;;;;;;;2.75;0.95;;;;;;;27.09;34.33;98346.94;5033914;28;20039;-62
2022/07/05 21:01:30;;;;;;;2.92;1.00;;;;;;;26.99;33.81;98329.81;5049339;28;20434;-63
2022/07/05 21:03:55;;;;;;;3.33;1.08;;;;;;;26.87;34.34;98320.41;5048834;28;20598;-63
2022/07/05 21:06:21;;;;;;;3.25;0.90;;;;;;;27.12;33.35;98357.09;5026278;28;20032;-63
2022/07/05 21:08:46;;;;;;;3.05;1.10;;;;;;;27.12;33.62;98347.22;5048443;28;20029;-63
2022/07/05 21:11:12;;;;;;;3.30;1.05;;;;;;;27.09;33.95;98362.94;5043246;28;20036;-63
2022/07/05 21:13:37;;;;;;;4.13;0.95;;;;;;;27.12;33.57;98367.78;5047085;28;20017;-62
2022/07/05 21:16:03;;;;;;;3.53;1.00;;;;;;;27.13;33.22;98356.06;5047185;28;20104;-62
2022/07/05 21:18:30;;;;;;;3.10;0.93;;;;;;;27.18;34.00;98370.22;5063820;28;20043;-62
2022/07/05 21:20:55;;;;;;;4.25;1.02;;;;;;;27.09;34.50;98370.97;5067522;28;20044;-60
2022/07/05 21:23:21;;;;;;;2.85;0.80;;;;;;;27.09;36.13;98370.97;5051900;28;20079;-62
2022/07/05 21:25:47;;;;;;;4.50;1.52;;;;;;;26.98;36.53;98376.25;5049848;28;20032;-62
2022/07/05 21:28:12;;;;;;;5.40;1.15;;;;;;;26.83;38.78;98378.81;5078513;28;20086;-63
2022/07/05 21:30:38;;;;;;;3.88;1.15;;;;;;;26.50;39.31;98383.31;5043883;28;20822;-61
2022/07/05 21:33:03;;;;;;;3.70;1.08;;;;;;;26.62;37.29;98378.66;5046230;28;20044;-61
2022/07/05 21:35:28;;;;;;;3.17;0.90;;;;;;;26.63;38.32;98387.44;5048780;28;20317;-61
2022/07/05 21:37:54;;;;;;;2.47;0.90;;;;;;;26.52;39.62;98383.88;5041829;28;20023;-61
2022/07/05 21:40:19;;;;;;;4.25;1.17;;;;;;;26.46;39.60;98385.69;5045089;28;20027;-62
2022/07/05 21:42:45;;;;;;;2.35;0.80;;;;;;;26.51;39.21;98384.16;5054519;28;20054;-61
2022/07/05 21:45:10;;;;;;;4.57;1.17;;;;;;;26.53;39.37;98374.81;5043271;28;20017;-61
2022/07/05 21:47:36;;;;;;;4.05;1.10;;;;;;;26.46;39.50;98382.22;5049775;28;20741;-62
2022/07/05 21:50:01;;;;;;;3.05;1.00;;;;;;;26.25;39.53;98358.06;5057278;28;20108;-63
2022/07/05 21:52:27;;;;;;;3.08;1.00;;;;;;;26.40;40.72;98389.38;5079004;28;20074;-62
2022/07/05 21:54:52;;;;;;;3.35;1.00;;;;;;;26.24;40.68;98396.41;5044168;28;20648;-62
2022/07/05 21:57:17;;;;;;;3.35;1.10;;;;;;;26.26;40.29;98393.50;5066920;28;20025;-62
2022/07/05 22:05:11;;;;;;;3.22;1.10;;;;;;;26.29;38.15;98395.69;5057724;28;20660;-62